Time;durP1;ratioP1;P1;durP2;ratioP2;P2;SDS_P1;SDS_P2;PMS_P1;PMS_P2;Temp;Humidity;BMP_temperature;BMP_pressure;BME280_temperature;BME280_humidity;BME280_pressure;Samples;Min_cycle;Max_cycle;Signal;HPM_P1;HPM_P2
2021/05/10 00:00:55;;;;;;;2.43;1.23;;;;;;;13.82;58.92;100024.34;5087533;28;20206;-69
2021/05/10 00:03:22;;;;;;;2.00;1.30;;;;;;;13.76;58.91;100016.75;5090426;28;20202;-70
2021/05/10 00:05:50;;;;;;;3.40;1.50;;;;;;;13.71;59.85;100015.31;5087071;28;20205;-70
2021/05/10 00:08:16;;;;;;;1.57;1.20;;;;;;;13.64;59.91;100005.09;5086320;28;20288;-70
2021/05/10 00:10:43;;;;;;;3.70;1.40;;;;;;;13.60;59.74;100008.81;5085076;28;20233;-70
2021/05/10 00:13:11;;;;;;;1.67;1.20;;;;;;;13.56;60.14;100007.28;5085988;28;20817;-69
2021/05/10 00:15:37;;;;;;;3.60;1.40;;;;;;;13.54;59.79;100003.84;5084046;28;20751;-69
2021/05/10 00:18:04;;;;;;;1.70;1.30;;;;;;;13.49;60.27;100012.84;5087654;28;20277;-71
2021/05/10 00:20:32;;;;;;;1.40;1.30;;;;;;;13.46;59.93;100011.25;5087822;28;20216;-70
2021/05/10 00:22:58;;;;;;;1.47;1.37;;;;;;;13.40;60.25;100008.91;5089118;28;20599;-70
2021/05/10 00:25:25;;;;;;;2.30;1.30;;;;;;;13.36;60.26;100012.59;5090807;28;20205;-69
2021/05/10 00:27:51;;;;;;;1.53;1.30;;;;;;;13.32;60.22;100017.13;5088268;28;20190;-71
2021/05/10 00:30:17;;;;;;;0.90;0.90;;;;;;;13.32;60.68;100018.91;5090533;28;20243;-69
2021/05/10 00:32:44;;;;;;;1.70;1.30;;;;;;;13.22;60.25;100011.44;5083800;28;20621;-70
2021/05/10 00:35:12;;;;;;;3.77;1.30;;;;;;;13.15;60.83;100009.19;5083273;28;20215;-70
2021/05/10 00:37:38;;;;;;;1.87;1.30;;;;;;;13.11;61.05;100012.88;5085788;28;20602;-69
2021/05/10 00:40:06;;;;;;;1.53;1.10;;;;;;;13.07;60.84;100007.78;5089431;28;20223;-70
2021/05/10 00:42:32;;;;;;;1.70;1.23;;;;;;;13.06;60.66;100003.44;5092532;28;20215;-70
2021/05/10 00:44:58;;;;;;;1.13;1.00;;;;;;;13.00;60.89;100010.75;5087736;28;20257;-70
2021/05/10 00:47:25;;;;;;;2.57;1.30;;;;;;;12.98;61.13;100012.56;5093457;28;20694;-70
2021/05/10 00:49:51;;;;;;;1.87;1.40;;;;;;;12.97;60.85;100014.34;5088691;28;20857;-71
2021/05/10 00:52:17;;;;;;;1.70;1.57;;;;;;;12.93;60.70;100018.03;5088449;28;20224;-69
2021/05/10 00:54:43;;;;;;;2.80;1.90;;;;;;;12.90;60.87;100020.78;5089582;28;20196;-69
2021/05/10 00:57:10;;;;;;;2.43;1.70;;;;;;;12.83;60.70;100014.97;5085556;28;20194;-69
2021/05/10 00:59:37;;;;;;;2.00;1.60;;;;;;;12.74;60.81;100023.25;5084709;28;20267;-69
2021/05/10 01:02:03;;;;;;;2.23;1.50;;;;;;;12.73;61.36;100018.06;5082091;28;20579;-69
2021/05/10 01:04:29;;;;;;;1.67;1.30;;;;;;;12.65;61.27;100014.03;5081257;28;20213;-69
2021/05/10 01:06:55;;;;;;;2.30;1.30;;;;;;;12.59;61.40;100013.44;5085863;28;20208;-69
2021/05/10 01:09:22;;;;;;;1.37;1.23;;;;;;;12.50;62.18;100018.19;5087534;28;20293;-71
2021/05/10 01:11:48;;;;;;;4.93;1.43;;;;;;;12.45;62.07;100014.94;5086688;28;20217;-72
2021/05/10 01:14:14;;;;;;;2.27;1.40;;;;;;;12.41;62.02;100017.72;5089633;28;20312;-72
2021/05/10 01:16:40;;;;;;;3.40;1.30;;;;;;;12.44;61.80;100007.16;5085825;28;20204;-71
2021/05/10 01:19:06;;;;;;;1.10;1.00;;;;;;;12.40;61.76;100010.78;5084520;28;20259;-71
2021/05/10 01:21:32;;;;;;;1.30;1.13;;;;;;;12.36;61.75;100004.84;5086205;28;20222;-70
2021/05/10 01:24:00;;;;;;;1.57;1.10;;;;;;;12.37;61.70;100003.94;5099870;27;20273;-70
2021/05/10 01:26:26;;;;;;;1.00;0.90;;;;;;;12.35;61.66;100011.00;5083574;28;20261;-71
2021/05/10 01:28:52;;;;;;;2.40;1.00;;;;;;;12.31;62.44;100002.44;5090415;28;20269;-69
2021/05/10 01:31:18;;;;;;;1.60;1.20;;;;;;;12.30;62.53;99999.91;5089623;28;20213;-70
2021/05/10 01:33:44;;;;;;;1.57;1.30;;;;;;;12.30;61.96;99992.91;5088316;28;20198;-70
2021/05/10 01:36:10;;;;;;;1.57;1.10;;;;;;;12.26;62.03;99995.69;5085072;28;20186;-71
2021/05/10 01:38:36;;;;;;;1.47;1.10;;;;;;;12.18;62.28;99993.41;5087866;28;20211;-73
2021/05/10 01:41:03;;;;;;;2.70;1.20;;;;;;;12.12;62.40;99986.69;5090110;28;20209;-71
2021/05/10 01:43:29;;;;;;;2.53;1.30;;;;;;;12.05;62.67;99987.03;5089512;28;21025;-73
2021/05/10 01:45:55;;;;;;;2.97;1.13;;;;;;;11.97;63.02;99983.88;5081513;28;20208;-70
2021/05/10 01:48:21;;;;;;;1.43;1.10;;;;;;;11.96;63.25;99984.78;5088679;28;20211;-73
2021/05/10 01:50:48;;;;;;;4.23;1.40;;;;;;;11.96;63.16;99979.56;5087469;28;20275;-71
2021/05/10 01:53:15;;;;;;;1.50;1.20;;;;;;;11.99;63.00;99982.06;5087246;28;20383;-72
2021/05/10 01:55:41;;;;;;;2.13;1.10;;;;;;;11.96;63.07;99977.81;5090149;28;20189;-71
2021/05/10 01:58:09;;;;;;;2.47;1.30;;;;;;;11.98;62.79;99985.56;5089226;28;20668;-72
2021/05/10 02:00:39;;;;;;;1.50;1.30;;;;;;;11.95;62.08;99989.19;5089960;28;20221;-71
2021/05/10 02:03:07;;;;;;;1.40;1.20;;;;;;;11.88;62.28;99980.69;5079499;28;20205;-72
2021/05/10 02:05:33;;;;;;;2.20;1.10;;;;;;;11.90;62.79;99975.41;5089405;28;20839;-71
2021/05/10 02:08:01;;;;;;;1.20;1.10;;;;;;;11.88;62.50;99978.09;5085900;28;20662;-72
2021/05/10 02:10:30;;;;;;;2.30;1.27;;;;;;;11.91;62.57;99974.56;5090126;28;20218;-69
2021/05/10 02:12:58;;;;;;;1.80;1.33;;;;;;;11.92;62.21;99973.63;5090055;28;20291;-71
2021/05/10 02:15:26;;;;;;;1.60;1.20;;;;;;;11.96;61.40;99971.72;5084815;28;20228;-70
2021/05/10 02:17:52;;;;;;;1.40;1.20;;;;;;;11.93;61.82;99975.34;5084732;28;20209;-73
2021/05/10 02:20:20;;;;;;;1.70;1.20;;;;;;;11.89;61.93;99974.59;5090660;28;20235;-69
2021/05/10 02:22:50;;;;;;;1.93;1.23;;;;;;;11.81;62.21;99970.59;5083372;28;20202;-70
2021/05/10 02:25:23;;;;;;;1.53;1.10;;;;;;;11.75;62.14;99969.09;5084318;28;20215;-70
2021/05/10 02:27:49;;;;;;;2.93;1.07;;;;;;;11.79;63.48;99960.19;5090571;28;20198;-72
2021/05/10 02:30:16;;;;;;;1.57;1.10;;;;;;;11.77;62.48;99969.88;5087780;28;20218;-71
2021/05/10 02:32:44;;;;;;;1.93;1.30;;;;;;;11.71;63.09;99968.38;5083899;28;20582;-69
2021/05/10 02:35:11;;;;;;;2.77;1.30;;;;;;;11.68;62.46;99962.38;5088240;28;20198;-70
2021/05/10 02:37:37;;;;;;;1.83;1.47;;;;;;;11.73;62.52;99956.09;5100079;27;20675;-70
2021/05/10 02:40:05;;;;;;;1.83;1.30;;;;;;;11.77;62.60;99956.81;5085958;28;20198;-70
2021/05/10 02:42:31;;;;;;;1.90;1.30;;;;;;;11.80;62.21;99955.81;5086476;28;20465;-70
2021/05/10 02:44:57;;;;;;;1.70;1.17;;;;;;;11.78;61.91;99953.25;5087927;28;20193;-69
2021/05/10 02:47:23;;;;;;;1.30;1.20;;;;;;;11.75;62.60;99953.41;5087583;28;20205;-70
2021/05/10 02:49:50;;;;;;;1.50;1.20;;;;;;;11.73;62.88;99952.59;5088254;28;20755;-70
2021/05/10 02:52:15;;;;;;;2.57;1.50;;;;;;;11.72;62.32;99948.31;5089870;28;20194;-70
2021/05/10 02:54:41;;;;;;;2.80;1.37;;;;;;;11.74;62.59;99944.72;5088041;28;20734;-72
2021/05/10 02:57:07;;;;;;;2.77;1.33;;;;;;;11.76;62.74;99944.66;5086087;28;20210;-70
2021/05/10 02:59:33;;;;;;;1.77;1.50;;;;;;;11.84;62.32;99952.19;5086426;28;20198;-70
2021/05/10 03:01:59;;;;;;;2.13;1.10;;;;;;;11.84;61.76;99953.03;5085304;28;20250;-70
2021/05/10 03:04:25;;;;;;;2.97;1.40;;;;;;;11.80;62.82;99954.03;5086302;28;20216;-69
2021/05/10 03:06:52;;;;;;;1.83;1.40;;;;;;;11.77;62.13;99956.81;5085095;28;20676;-70
2021/05/10 03:09:18;;;;;;;1.50;1.40;;;;;;;11.83;61.96;99959.16;5085163;28;20212;-69
2021/05/10 03:11:44;;;;;;;2.80;1.50;;;;;;;11.85;62.30;99957.31;5085212;28;20592;-70
2021/05/10 03:14:13;;;;;;;2.67;1.63;;;;;;;11.79;62.34;99952.38;5086004;28;20187;-70
2021/05/10 03:16:41;;;;;;;3.53;1.67;;;;;;;11.82;62.27;99947.03;5083991;28;20275;-69
2021/05/10 03:19:09;;;;;;;2.57;1.40;;;;;;;11.86;62.08;99942.53;5088589;28;20287;-69
2021/05/10 03:21:36;;;;;;;3.20;1.57;;;;;;;11.88;62.32;99943.28;5090156;28;20224;-70
2021/05/10 03:24:04;;;;;;;1.83;1.37;;;;;;;11.89;61.63;99939.75;5087805;28;20615;-70
2021/05/10 03:26:30;;;;;;;2.50;1.60;;;;;;;11.87;61.84;99944.19;5090681;28;20197;-69
2021/05/10 03:28:56;;;;;;;1.27;1.10;;;;;;;11.90;61.61;99951.91;5081218;28;20190;-70
2021/05/10 03:31:22;;;;;;;1.80;1.43;;;;;;;11.91;61.82;99953.66;5085422;28;20301;-69
2021/05/10 03:33:48;;;;;;;1.63;1.40;;;;;;;11.88;62.07;99954.59;5078814;28;20748;-70
2021/05/10 03:36:14;;;;;;;2.33;1.50;;;;;;;11.83;62.26;99953.09;5085630;28;20777;-70
2021/05/10 03:38:40;;;;;;;2.23;1.50;;;;;;;11.80;61.78;99959.28;5093021;28;20196;-70
2021/05/10 03:41:07;;;;;;;1.50;1.40;;;;;;;11.83;61.37;99953.94;5090059;28;20230;-69
2021/05/10 03:43:33;;;;;;;2.97;1.47;;;;;;;11.81;61.94;99954.91;5091197;28;20282;-71
2021/05/10 03:45:59;;;;;;;1.67;1.53;;;;;;;11.79;61.39;99962.81;5089009;28;20612;-69
2021/05/10 03:48:25;;;;;;;2.20;1.40;;;;;;;11.84;61.84;99957.41;5090664;28;20213;-70
2021/05/10 03:50:51;;;;;;;3.07;1.47;;;;;;;11.85;61.95;99959.94;5091360;28;20221;-70
2021/05/10 03:53:17;;;;;;;1.70;1.47;;;;;;;11.89;61.75;99956.28;5092190;28;20228;-70
2021/05/10 03:55:43;;;;;;;3.57;1.50;;;;;;;11.89;61.35;99961.53;5090198;28;20226;-70
2021/05/10 03:58:09;;;;;;;3.53;1.50;;;;;;;11.96;61.92;99972.59;5088560;28;20280;-70
2021/05/10 04:00:35;;;;;;;2.10;1.20;;;;;;;11.90;61.29;99967.59;5091910;28;20634;-71
2021/05/10 04:03:03;;;;;;;1.50;1.40;;;;;;;11.95;61.69;99970.88;5093093;28;20198;-69
2021/05/10 04:08:36;;;;;;;2.10;1.47;;;;;;;12.25;60.97;99971.34;5085409;28;20214;-70
2021/05/10 04:11:04;;;;;;;3.33;1.33;;;;;;;12.38;60.16;99976.88;5087096;28;20239;-69
2021/05/10 04:13:35;;;;;;;1.73;1.50;;;;;;;12.54;59.79;99965.72;5089735;28;20998;-70
2021/05/10 04:16:01;;;;;;;3.37;1.53;;;;;;;12.63;59.41;99971.41;5089752;28;20213;-70
2021/05/10 04:18:27;;;;;;;2.60;1.30;;;;;;;12.75;59.44;99975.25;5090692;28;21028;-70
2021/05/10 04:20:53;;;;;;;3.60;1.53;;;;;;;12.86;59.05;99980.00;5083248;28;20590;-70
2021/05/10 04:23:20;;;;;;;3.10;1.50;;;;;;;12.94;58.90;99984.84;5088763;28;20215;-70
2021/05/10 04:25:48;;;;;;;2.73;1.60;;;;;;;12.96;58.42;99978.63;5089739;28;20680;-70
2021/05/10 04:28:14;;;;;;;3.10;1.80;;;;;;;13.00;58.29;99976.75;5093777;28;20199;-70
2021/05/10 04:30:42;;;;;;;2.20;1.37;;;;;;;13.07;58.00;99979.00;5091411;28;20739;-69
2021/05/10 04:33:08;;;;;;;3.87;1.50;;;;;;;13.06;58.21;99979.06;5089141;28;20210;-70
2021/05/10 04:35:34;;;;;;;3.13;1.53;;;;;;;13.06;58.04;99974.66;5089354;28;20195;-70
2021/05/10 04:38:02;;;;;;;1.37;1.27;;;;;;;13.10;57.95;99967.50;5092421;28;20199;-70
2021/05/10 04:40:28;;;;;;;1.97;1.30;;;;;;;13.21;57.66;99970.50;5088626;28;20239;-69
2021/05/10 04:42:54;;;;;;;1.93;1.40;;;;;;;13.39;56.35;99976.66;5088240;28;20226;-70
2021/05/10 04:45:20;;;;;;;2.07;1.40;;;;;;;13.49;56.68;99977.06;5091606;28;20795;-70
2021/05/10 04:47:47;;;;;;;2.00;1.30;;;;;;;13.57;57.36;99987.16;5086814;28;20199;-70
2021/05/10 04:50:14;;;;;;;1.83;1.30;;;;;;;13.66;56.41;99986.69;5089950;28;20224;-70
2021/05/10 04:52:40;;;;;;;2.70;1.57;;;;;;;13.74;57.04;99994.19;5087075;28;20199;-70
2021/05/10 04:55:08;;;;;;;1.63;1.50;;;;;;;13.85;56.09;99994.50;5090466;28;20250;-69
2021/05/10 04:57:34;;;;;;;1.57;1.40;;;;;;;13.91;56.18;99996.84;5089972;28;20988;-70
2021/05/10 05:00:00;;;;;;;2.80;1.53;;;;;;;13.96;55.76;99981.69;5098298;28;20201;-70
2021/05/10 05:02:26;;;;;;;1.87;1.13;;;;;;;14.07;55.35;99982.94;5089145;28;20240;-70
2021/05/10 05:04:53;;;;;;;2.80;1.60;;;;;;;14.16;54.95;99996.44;5089354;28;20197;-70
2021/05/10 05:07:19;;;;;;;1.63;1.20;;;;;;;14.28;55.02;99991.47;5085811;28;20210;-71
2021/05/10 05:09:45;;;;;;;1.63;1.40;;;;;;;14.39;54.13;99999.66;5089539;28;20204;-69
2021/05/10 05:12:11;;;;;;;1.40;1.30;;;;;;;14.45;54.22;99996.69;5085982;28;20726;-70
2021/05/10 05:14:40;;;;;;;2.07;1.33;;;;;;;14.52;53.94;100000.69;5087637;28;20705;-71
2021/05/10 05:17:06;;;;;;;3.43;1.77;;;;;;;14.61;54.40;100009.88;5084809;28;20205;-70
2021/05/10 05:19:32;;;;;;;1.87;1.20;;;;;;;14.71;53.46;100016.34;5088137;28;20209;-70
2021/05/10 05:21:59;;;;;;;3.17;1.30;;;;;;;14.76;54.17;100016.94;5084879;28;20714;-70
2021/05/10 05:24:25;;;;;;;1.43;1.23;;;;;;;14.73;53.43;100008.41;5087100;28;20743;-70
2021/05/10 05:26:51;;;;;;;2.93;1.53;;;;;;;14.67;54.02;100003.47;5085221;28;20255;-70
2021/05/10 05:29:21;;;;;;;2.13;1.50;;;;;;;14.60;54.37;99999.47;5080676;28;20206;-70
2021/05/10 05:31:47;;;;;;;3.07;1.60;;;;;;;14.60;55.01;100007.34;5087022;28;20271;-70
2021/05/10 05:34:13;;;;;;;3.73;1.33;;;;;;;14.56;54.05;100001.38;5085363;28;20206;-70
2021/05/10 05:36:39;;;;;;;2.17;1.70;;;;;;;14.51;55.11;99999.00;5085049;28;20244;-72
2021/05/10 05:39:07;;;;;;;1.57;1.27;;;;;;;14.53;55.41;100002.41;5082623;28;20186;-72
2021/05/10 05:41:33;;;;;;;1.97;1.57;;;;;;;14.61;55.97;100009.88;5087709;28;20226;-71
2021/05/10 05:43:59;;;;;;;1.50;1.30;;;;;;;14.75;54.41;100012.63;5090157;28;20429;-71
2021/05/10 05:46:28;;;;;;;4.37;1.50;;;;;;;14.88;53.67;100007.59;5084467;28;20219;-71
2021/05/10 05:48:54;;;;;;;1.97;1.60;;;;;;;15.07;53.06;100010.03;5083146;28;20199;-71
2021/05/10 05:51:22;;;;;;;1.47;1.10;;;;;;;15.18;53.02;100009.47;5087871;28;20720;-70
2021/05/10 05:53:52;;;;;;;1.73;1.50;;;;;;;15.33;52.39;99999.88;5082059;28;20204;-69
2021/05/10 05:56:19;;;;;;;3.37;1.53;;;;;;;15.47;53.01;99996.50;5088290;28;20194;-69
2021/05/10 05:58:46;;;;;;;1.50;1.40;;;;;;;15.57;53.17;99988.94;5087072;28;20222;-69
2021/05/10 06:01:12;;;;;;;2.60;1.50;;;;;;;15.70;52.54;99996.00;5085553;28;20224;-70
2021/05/10 06:03:38;;;;;;;1.90;1.40;;;;;;;15.76;51.53;100004.50;5087335;28;20569;-70
2021/05/10 06:06:04;;;;;;;2.03;1.50;;;;;;;15.86;52.58;99993.38;5087446;28;20252;-70
2021/05/10 06:08:30;;;;;;;3.17;1.53;;;;;;;15.93;51.38;99985.16;5086730;28;22064;-70
2021/05/10 06:10:56;;;;;;;1.33;1.20;;;;;;;16.04;50.81;99996.72;5085608;28;20293;-69
2021/05/10 06:13:23;;;;;;;1.80;1.33;;;;;;;16.11;51.24;99996.34;5086142;28;20268;-70
2021/05/10 06:15:49;;;;;;;3.77;1.43;;;;;;;16.21;50.75;100002.78;5086534;28;20888;-71
2021/05/10 06:18:15;;;;;;;3.03;1.40;;;;;;;16.33;50.25;100006.47;5089310;28;20256;-71
2021/05/10 06:20:42;;;;;;;4.47;1.37;;;;;;;16.45;50.95;100009.19;5084977;28;20221;-70
2021/05/10 06:23:07;;;;;;;1.80;1.43;;;;;;;16.57;49.86;100014.63;5081926;28;20198;-72
2021/05/10 06:25:33;;;;;;;1.30;1.10;;;;;;;16.64;49.59;100005.47;5089907;28;20214;-71
2021/05/10 06:27:59;;;;;;;1.40;1.30;;;;;;;16.72;50.66;100015.50;5086318;28;20208;-70
2021/05/10 06:30:26;;;;;;;1.87;1.30;;;;;;;16.75;49.79;100021.41;5085003;28;20307;-71
2021/05/10 06:32:54;;;;;;;2.07;1.40;;;;;;;16.83;49.87;100016.56;5086568;28;20205;-70
2021/05/10 06:35:20;;;;;;;2.27;1.30;;;;;;;17.00;50.72;100017.31;5089565;28;20202;-70
2021/05/10 06:37:46;;;;;;;1.50;1.30;;;;;;;17.10;50.74;100015.78;5082717;28;20580;-70
2021/05/10 06:40:13;;;;;;;2.10;1.33;;;;;;;17.20;49.29;100016.91;5081646;28;20309;-70
2021/05/10 06:42:39;;;;;;;1.50;1.30;;;;;;;17.23;48.45;100021.94;5086384;28;20213;-69
2021/05/10 06:45:07;;;;;;;4.93;1.63;;;;;;;17.19;47.95;100017.84;5085139;28;20213;-70
2021/05/10 06:47:34;;;;;;;2.33;1.40;;;;;;;17.40;48.48;100017.41;5088671;28;20341;-70
2021/05/10 06:50:00;;;;;;;3.00;1.57;;;;;;;17.44;48.57;100012.78;5086197;28;20639;-71
2021/05/10 06:52:26;;;;;;;1.90;1.40;;;;;;;17.59;48.22;100017.09;5089812;28;20572;-70
2021/05/10 06:54:52;;;;;;;2.43;1.10;;;;;;;17.59;47.42;100022.34;5087038;28;20205;-70
2021/05/10 06:57:18;;;;;;;2.97;1.50;;;;;;;17.55;49.88;100023.47;5090475;28;20238;-71
2021/05/10 06:59:44;;;;;;;2.37;1.40;;;;;;;17.65;48.06;100032.47;5087324;28;20443;-70
2021/05/10 07:02:11;;;;;;;2.03;1.30;;;;;;;17.74;48.23;100021.31;5088369;28;20304;-72
2021/05/10 07:04:38;;;;;;;1.57;1.30;;;;;;;17.91;48.37;100016.78;5087760;28;20201;-71
2021/05/10 07:07:04;;;;;;;1.47;1.33;;;;;;;18.07;49.02;100021.88;5088922;28;20206;-70
2021/05/10 07:09:30;;;;;;;2.20;1.10;;;;;;;18.15;48.28;100030.97;5089038;28;21001;-70
2021/05/10 07:11:56;;;;;;;1.90;1.30;;;;;;;18.21;49.20;100019.16;5085360;28;20532;-70
2021/05/10 07:14:22;;;;;;;1.57;1.43;;;;;;;18.18;47.37;100029.91;5088019;28;20198;-70
2021/05/10 07:16:48;;;;;;;1.70;1.37;;;;;;;18.20;49.53;100008.69;5085303;28;20194;-69
2021/05/10 07:19:14;;;;;;;1.57;1.40;;;;;;;18.22;48.93;100005.00;5083171;28;20289;-70
2021/05/10 07:21:42;;;;;;;2.17;1.40;;;;;;;18.25;50.21;100001.31;5085322;28;20598;-71
2021/05/10 07:24:08;;;;;;;1.60;1.30;;;;;;;18.33;49.23;99997.22;5086528;28;20190;-70
2021/05/10 07:26:35;;;;;;;1.47;1.30;;;;;;;18.46;48.59;99997.19;5086418;28;20317;-69
2021/05/10 07:29:01;;;;;;;1.93;1.40;;;;;;;18.66;47.66;100002.88;5088088;28;20181;-70
2021/05/10 07:31:27;;;;;;;2.33;1.60;;;;;;;18.78;47.96;99995.91;5087360;28;20217;-71
2021/05/10 07:33:53;;;;;;;2.73;1.40;;;;;;;19.01;49.14;100000.44;5084989;28;20724;-70
2021/05/10 07:36:19;;;;;;;1.47;1.23;;;;;;;19.11;48.62;99998.00;5081801;28;20236;-70
2021/05/10 07:38:46;;;;;;;2.83;1.20;;;;;;;19.21;47.79;100004.31;5086113;28;20306;-70
2021/05/10 07:41:12;;;;;;;3.60;1.20;;;;;;;19.25;48.29;99999.63;5085846;28;20229;-70
2021/05/10 07:43:38;;;;;;;2.50;1.60;;;;;;;19.40;48.40;100002.94;5086507;28;20200;-70
2021/05/10 07:46:04;;;;;;;1.80;1.50;;;;;;;19.55;47.12;100001.84;5085484;28;20305;-72
2021/05/10 07:48:30;;;;;;;1.57;1.20;;;;;;;19.66;45.95;100001.03;5086594;28;20197;-71
2021/05/10 07:50:56;;;;;;;1.83;1.33;;;;;;;19.67;48.44;100002.75;5082521;28;20265;-72
2021/05/10 07:53:22;;;;;;;2.20;1.30;;;;;;;19.75;47.40;99996.91;5088722;28;20204;-71
2021/05/10 07:55:49;;;;;;;1.70;1.30;;;;;;;19.75;48.53;99992.47;5083250;28;20737;-70
2021/05/10 07:58:20;;;;;;;3.40;1.50;;;;;;;19.75;49.00;99995.13;5085494;28;20275;-70
2021/05/10 08:00:48;;;;;;;1.47;1.30;;;;;;;19.86;47.51;100002.25;5086313;28;20267;-72
2021/05/10 08:03:16;;;;;;;1.73;1.30;;;;;;;20.05;48.88;100005.19;5088542;28;20202;-71
2021/05/10 08:05:43;;;;;;;1.30;1.20;;;;;;;20.16;46.27;100012.31;5087049;28;20208;-71
2021/05/10 08:08:10;;;;;;;1.60;1.30;;;;;;;20.42;46.73;100009.47;5087229;28;20190;-70
2021/05/10 08:10:36;;;;;;;1.60;1.30;;;;;;;20.54;45.42;100008.50;5101598;28;20253;-70
2021/05/10 08:13:03;;;;;;;3.40;1.50;;;;;;;20.61;46.49;100008.88;5087923;28;20201;-69
2021/05/10 08:15:29;;;;;;;1.27;1.17;;;;;;;20.54;46.58;100012.97;5084151;28;20247;-70
2021/05/10 08:17:55;;;;;;;1.73;1.50;;;;;;;20.60;46.51;100015.16;5084413;28;20194;-70
2021/05/10 08:20:21;;;;;;;1.40;1.30;;;;;;;20.77;46.45;100009.44;5084878;28;20326;-70
2021/05/10 08:22:47;;;;;;;1.40;1.30;;;;;;;20.89;46.63;100006.75;5088184;28;20210;-69
2021/05/10 08:25:13;;;;;;;1.53;1.20;;;;;;;20.93;46.69;100010.84;5090636;28;20193;-70
2021/05/10 08:27:40;;;;;;;2.23;1.27;;;;;;;21.01;46.80;100013.72;5085778;28;20289;-72
2021/05/10 08:30:09;;;;;;;3.33;1.40;;;;;;;21.01;46.08;100007.59;5084840;28;20237;-70
2021/05/10 08:32:35;;;;;;;1.67;1.13;;;;;;;21.22;46.37;100016.47;5071646;28;20456;-70
2021/05/10 08:35:02;;;;;;;1.50;1.30;;;;;;;21.31;45.29;100007.78;5087396;28;20580;-70
2021/05/10 08:37:29;;;;;;;2.07;1.30;;;;;;;21.41;44.04;100013.19;5091943;28;20202;-71
2021/05/10 08:39:55;;;;;;;2.47;1.20;;;;;;;21.61;44.60;100008.09;5083215;28;20206;-71
2021/05/10 08:42:20;;;;;;;3.27;1.20;;;;;;;21.79;43.86;99992.47;5090701;28;20270;-72
2021/05/10 08:44:47;;;;;;;2.33;1.20;;;;;;;22.01;43.50;99980.91;5085309;28;20255;-72
2021/05/10 08:47:13;;;;;;;3.90;1.40;;;;;;;22.07;43.04;99983.03;5087955;28;20205;-70
2021/05/10 08:49:42;;;;;;;1.50;1.40;;;;;;;22.00;42.97;99990.66;5087331;28;20205;-70
2021/05/10 08:52:08;;;;;;;3.87;1.30;;;;;;;21.79;43.76;99987.97;5088742;28;20246;-69
2021/05/10 08:54:36;;;;;;;1.67;1.40;;;;;;;21.60;45.37;99980.72;5084686;28;20206;-70
2021/05/10 08:57:02;;;;;;;1.10;1.00;;;;;;;21.46;45.44;99973.91;5088109;28;20221;-70
2021/05/10 08:59:29;;;;;;;1.97;1.40;;;;;;;21.66;44.57;99974.91;5089181;28;20664;-69
2021/05/10 09:01:58;;;;;;;1.77;1.20;;;;;;;21.84;43.83;99977.00;5086515;28;20226;-70
2021/05/10 09:04:31;;;;;;;1.47;1.20;;;;;;;21.94;45.12;99973.44;5084647;28;20720;-70
2021/05/10 09:07:14;;;;;;;1.87;1.23;;;;;;;22.21;44.02;99987.16;5104729;27;20760;-70
2021/05/10 09:09:58;;;;;;;2.83;1.17;;;;;;;22.39;42.40;99982.13;5086548;28;20566;-70
2021/05/10 09:12:40;;;;;;;4.13;1.20;;;;;;;22.53;44.31;99983.59;5083715;28;21476;-71
2021/05/10 09:15:19;;;;;;;2.53;1.20;;;;;;;22.33;44.84;99972.88;5086452;28;20540;-72
2021/05/10 09:17:46;;;;;;;1.60;1.33;;;;;;;22.13;43.58;99975.38;5081818;28;20194;-70
2021/05/10 09:20:16;;;;;;;2.43;1.30;;;;;;;22.07;44.72;99972.41;5091240;28;20221;-71
2021/05/10 09:22:50;;;;;;;2.63;1.23;;;;;;;22.03;43.01;99993.06;5084774;28;21425;-70
2021/05/10 09:25:17;;;;;;;2.40;1.40;;;;;;;22.07;44.79;99985.69;5086092;28;20616;-71
2021/05/10 09:27:43;;;;;;;2.60;1.57;;;;;;;22.04;43.94;99994.75;5086843;28;20682;-70
2021/05/10 09:30:15;;;;;;;1.17;1.07;;;;;;;22.20;45.55;99980.16;5087406;28;20601;-70
2021/05/10 09:32:46;;;;;;;1.73;1.40;;;;;;;22.27;44.70;99981.38;5086042;28;20194;-70
2021/05/10 09:35:19;;;;;;;3.27;1.40;;;;;;;22.50;44.80;99988.19;5084679;28;20197;-70
2021/05/10 09:37:53;;;;;;;1.50;1.10;;;;;;;22.86;43.49;99998.41;5086194;28;20212;-70
2021/05/10 09:40:19;;;;;;;1.27;1.17;;;;;;;23.06;43.66;100002.00;5089856;28;20220;-70
2021/05/10 09:42:49;;;;;;;1.40;1.30;;;;;;;23.20;42.86;100004.28;5083082;28;20218;-70
2021/05/10 09:45:37;;;;;;;3.97;1.37;;;;;;;23.28;43.07;99995.59;5081148;28;20198;-70
2021/05/10 09:48:05;;;;;;;3.03;1.43;;;;;;;23.32;41.67;99998.84;5081500;28;20198;-70
2021/05/10 09:50:36;;;;;;;1.00;1.00;;;;;;;23.40;43.57;99989.19;5086517;28;20225;-70
2021/05/10 09:53:03;;;;;;;2.15;1.38;;;;;;;23.50;43.62;99991.00;5083814;28;21037;-71
2021/05/10 09:55:48;;;;;;;1.90;1.40;;;;;;;23.70;42.65;99995.38;5088078;28;20235;-71
2021/05/10 09:58:16;;;;;;;1.40;1.30;;;;;;;23.91;40.90;99992.59;5086625;28;20214;-70
2021/05/10 10:00:42;;;;;;;3.17;1.40;;;;;;;23.92;41.76;99986.28;5083142;28;20297;-69
2021/05/10 10:03:33;;;;;;;1.48;1.10;;;;;;;24.04;41.50;99986.13;5088547;28;20232;-70
2021/05/10 10:06:02;;;;;;;1.20;1.10;;;;;;;24.14;41.68;99992.28;5082277;28;20288;-70
2021/05/10 10:08:28;;;;;;;3.03;1.25;;;;;;;24.19;43.30;100001.50;5086714;28;20217;-70
2021/05/10 10:10:56;;;;;;;1.50;1.33;;;;;;;24.22;41.95;100000.41;5084169;28;20218;-70
2021/05/10 10:13:22;;;;;;;1.52;1.35;;;;;;;24.20;42.25;100002.34;5090879;28;20205;-71
2021/05/10 10:15:48;;;;;;;1.98;1.27;;;;;;;24.19;43.02;100001.50;5082617;28;20225;-71
2021/05/10 10:18:20;;;;;;;1.63;1.00;;;;;;;24.33;42.43;100010.88;5082316;28;20201;-70
2021/05/10 10:20:48;;;;;;;2.72;1.20;;;;;;;24.33;42.01;100020.69;5084241;28;20312;-70
2021/05/10 10:23:16;;;;;;;1.17;1.08;;;;;;;24.50;42.48;100021.75;5079523;28;20684;-72
2021/05/10 10:25:43;;;;;;;1.42;1.27;;;;;;;24.57;42.91;100022.88;5085534;28;21686;-71
2021/05/10 10:28:14;;;;;;;4.15;1.27;;;;;;;24.56;42.95;100015.91;5086493;28;20607;-71
2021/05/10 10:30:43;;;;;;;1.85;1.20;;;;;;;24.68;41.32;100014.72;5084002;28;20621;-70
2021/05/10 10:33:13;;;;;;;1.10;1.10;;;;;;;24.69;41.23;100011.06;5084482;28;20241;-70
2021/05/10 10:35:44;;;;;;;1.98;1.20;;;;;;;24.67;41.35;100005.03;5083536;28;20216;-72
2021/05/10 10:38:11;;;;;;;1.98;1.17;;;;;;;24.86;41.00;100001.47;5086125;28;20650;-70
2021/05/10 10:40:38;;;;;;;1.25;1.15;;;;;;;24.93;40.72;100009.72;5082979;28;20275;-73
2021/05/10 10:43:24;;;;;;;1.65;1.25;;;;;;;24.88;39.95;100007.47;5084619;28;20244;-72
2021/05/10 10:46:20;;;;;;;2.22;1.40;;;;;;;25.05;41.45;99997.03;5084161;28;20288;-72
2021/05/10 10:48:47;;;;;;;1.58;1.40;;;;;;;25.21;40.96;99988.38;5086093;28;20197;-72
2021/05/10 10:51:15;;;;;;;2.13;1.30;;;;;;;25.20;39.72;99989.34;5082996;28;20213;-72
2021/05/10 10:53:42;;;;;;;1.38;1.27;;;;;;;25.12;39.30;99988.28;5086865;28;20204;-72
2021/05/10 10:56:09;;;;;;;1.60;1.30;;;;;;;25.22;40.66;99979.38;5086850;28;20250;-72
2021/05/10 10:58:37;;;;;;;1.92;1.60;;;;;;;25.35;39.71;99987.03;5077211;28;20280;-72
2021/05/10 11:01:06;;;;;;;1.88;1.38;;;;;;;25.48;38.58;99985.66;5083917;28;20214;-72
2021/05/10 11:03:34;;;;;;;1.48;1.38;;;;;;;25.40;40.46;99984.75;5085020;28;20266;-73
2021/05/10 11:06:01;;;;;;;3.53;1.27;;;;;;;25.51;40.69;99981.88;5084282;28;20205;-73
2021/05/10 11:08:49;;;;;;;2.15;1.48;;;;;;;25.53;37.84;99982.53;5082654;28;20202;-73
2021/05/10 11:11:41;;;;;;;2.75;1.40;;;;;;;25.73;39.90;99979.72;5092358;27;21036;-72
2021/05/10 11:14:15;;;;;;;2.78;1.40;;;;;;;25.87;39.50;99976.50;5082139;28;20234;-72
2021/05/10 11:16:49;;;;;;;1.50;1.33;;;;;;;25.95;38.89;99967.75;5087136;28;20588;-73
2021/05/10 11:19:29;;;;;;;1.30;1.20;;;;;;;26.03;38.76;99971.31;5082187;28;20198;-73
2021/05/10 11:21:56;;;;;;;1.25;1.15;;;;;;;26.00;37.45;99974.28;5083923;28;20233;-73
2021/05/10 11:24:28;;;;;;;1.30;1.20;;;;;;;25.96;39.43;99967.59;5085623;28;20566;-73
2021/05/10 11:26:56;;;;;;;1.85;1.40;;;;;;;26.17;40.09;99969.06;5086139;28;20301;-73
2021/05/10 11:29:50;;;;;;;1.27;1.17;;;;;;;26.16;40.01;99970.06;5086979;28;20271;-70
2021/05/10 11:32:27;;;;;;;1.20;1.10;;;;;;;26.07;38.65;99972.66;5086002;28;20189;-73
2021/05/10 11:34:53;;;;;;;4.78;1.30;;;;;;;26.16;38.07;99962.88;5085776;28;20198;-72